Time;durP1;ratioP1;P1;durP2;ratioP2;P2;SDS_P1;SDS_P2;PMS_P1;PMS_P2;Temp;Humidity;BMP_temperature;BMP_pressure;BME280_temperature;BME280_humidity;BME280_pressure;Samples;Min_cycle;Max_cycle;Signal;HPM_P1;HPM_P2
2020/12/05 00:07:20;;;;;;;15.73;11.33;;;;;;;5.19;71.83;98408.30;517187;1098;65445;-66
2020/12/05 00:17:24;;;;;;;17.27;10.80;;;;;;;5.10;72.32;98411.45;517059;1098;65199;-64
2020/12/05 00:27:28;;;;;;;16.30;10.50;;;;;;;5.16;72.39;98421.47;516986;1098;65172;-63
2020/12/05 00:37:32;;;;;;;15.10;10.20;;;;;;;5.15;72.06;98416.37;517360;1090;65581;-62
2020/12/05 00:47:37;;;;;;;15.00;10.73;;;;;;;5.15;72.27;98411.17;517196;1098;65608;-63
2020/12/05 00:57:40;;;;;;;17.07;10.97;;;;;;;5.24;72.45;98388.95;517286;1098;65195;-64
2020/12/05 01:07:45;;;;;;;15.40;8.87;;;;;;;5.17;72.27;98383.29;517452;1098;65182;-61
2020/12/05 01:17:49;;;;;;;14.23;9.97;;;;;;;5.22;72.44;98391.63;517177;1098;65230;-62
2020/12/05 01:27:53;;;;;;;14.70;10.67;;;;;;;5.29;72.50;98394.69;516891;1090;65169;-62
2020/12/05 01:37:57;;;;;;;14.87;10.57;;;;;;;5.24;72.54;98394.16;516992;1098;65291;-62
2020/12/05 01:48:01;;;;;;;13.30;9.53;;;;;;;5.37;72.41;98394.22;517239;1090;65173;-60
2020/12/05 01:58:05;;;;;;;15.75;10.55;;;;;;;5.38;72.73;98380.30;517266;1098;65238;-61
2020/12/05 02:08:12;;;;;;;13.23;8.87;;;;;;;5.41;72.31;98387.91;517132;1098;65185;-61
2020/12/05 02:18:17;;;;;;;12.25;10.03;;;;;;;5.51;72.35;98385.56;517023;1098;65165;-63
2020/12/05 02:28:22;;;;;;;16.83;10.93;;;;;;;5.54;72.22;98388.81;517192;1098;65470;-61
2020/12/05 02:38:42;;;;;;;14.03;9.17;;;;;;;5.57;72.58;98388.61;517253;1098;65527;-62
2020/12/05 02:48:45;;;;;;;13.87;9.23;;;;;;;5.67;72.45;98383.68;517221;1098;65229;-61
2020/12/05 02:58:49;;;;;;;15.17;9.33;;;;;;;5.72;72.68;98379.00;517121;1098;65665;-62
2020/12/05 03:08:53;;;;;;;11.33;7.77;;;;;;;5.77;72.65;98383.07;517456;1098;65767;-62
2020/12/05 03:18:57;;;;;;;12.93;8.47;;;;;;;5.88;72.18;98381.47;517092;1098;65248;-62
2020/12/05 03:29:02;;;;;;;12.63;9.50;;;;;;;5.94;71.97;98384.59;517307;1098;65236;-61
2020/12/05 03:39:06;;;;;;;11.37;8.40;;;;;;;6.03;71.73;98384.04;517103;1098;65157;-62
2020/12/05 03:49:10;;;;;;;10.87;8.57;;;;;;;6.05;71.68;98384.77;517351;1098;65232;-62
2020/12/05 03:59:13;;;;;;;12.67;8.23;;;;;;;5.99;71.83;98372.13;517343;1098;65179;-62
2020/12/05 04:09:18;;;;;;;9.47;7.70;;;;;;;6.07;71.97;98384.69;517159;1098;65496;-62
2020/12/05 04:19:21;;;;;;;12.27;8.73;;;;;;;6.02;71.75;98380.61;517248;1098;65219;-61
2020/12/05 04:29:25;;;;;;;13.33;9.03;;;;;;;6.06;71.84;98377.80;517359;1098;65221;-62
2020/12/05 04:39:29;;;;;;;10.97;8.23;;;;;;;6.13;71.83;98386.91;517180;1093;65863;-62
2020/12/05 04:49:36;;;;;;;13.03;9.10;;;;;;;6.08;71.69;98387.20;517061;1098;65284;-61
2020/12/05 04:59:40;;;;;;;11.60;8.43;;;;;;;6.22;71.55;98398.50;517143;1098;65258;-61
2020/12/05 05:09:56;;;;;;;11.60;9.50;;;;;;;6.30;71.25;98406.66;517228;1090;66348;-61
2020/12/05 05:20:00;;;;;;;11.73;8.63;;;;;;;6.34;71.20;98415.09;517314;1098;65188;-61
2020/12/05 05:30:12;;;;;;;12.13;8.83;;;;;;;6.42;71.10;98436.30;517079;1098;65466;-60
2020/12/05 05:40:26;;;;;;;10.67;8.53;;;;;;;6.44;71.30;98417.01;516791;1098;65262;-61
2020/12/05 05:50:34;;;;;;;12.63;10.50;;;;;;;6.51;71.42;98435.69;516538;1098;65162;-61
2020/12/05 06:00:38;;;;;;;;;;;;;;;6.57;71.33;98440.48;516370;1090;65250;-61
2020/12/05 06:10:46;;;;;;;12.83;9.03;;;;;;;6.57;71.20;98445.70;516870;1098;65271;-61
2020/12/05 06:20:51;;;;;;;11.63;9.37;;;;;;;6.58;71.02;98465.66;517026;1090;65178;-61
2020/12/05 06:30:55;;;;;;;13.23;8.50;;;;;;;6.65;71.25;98494.78;516992;1098;65179;-62
2020/12/05 06:40:59;;;;;;;14.53;10.03;;;;;;;6.69;70.97;98495.39;516895;1090;65201;-63
2020/12/05 06:51:03;;;;;;;13.00;9.70;;;;;;;6.59;71.08;98506.45;516298;1093;65229;-60
2020/12/05 07:01:07;;;;;;;11.90;9.20;;;;;;;6.69;70.92;98524.09;515953;1098;65316;-61
2020/12/05 07:11:18;;;;;;;14.17;9.67;;;;;;;6.75;70.70;98536.75;516771;1098;65517;-63
2020/12/05 07:21:23;;;;;;;13.03;9.40;;;;;;;6.84;70.50;98537.91;516888;1098;65309;-62
2020/12/05 07:31:26;;;;;;;14.03;10.13;;;;;;;6.97;70.66;98566.66;517315;1098;65159;-62
2020/12/05 07:41:31;;;;;;;15.83;10.57;;;;;;;7.11;70.53;98566.58;517170;1098;65609;-62
2020/12/05 07:51:35;;;;;;;14.30;10.87;;;;;;;7.36;69.98;98575.39;516995;1098;65251;-62
2020/12/05 08:01:51;;;;;;;13.03;10.30;;;;;;;7.53;69.97;98586.48;517178;1098;65168;-61
2020/12/05 08:11:56;;;;;;;13.15;10.05;;;;;;;7.75;69.64;98591.08;517082;1098;65166;-62
2020/12/05 08:22:08;;;;;;;12.77;9.03;;;;;;;8.04;68.72;98582.16;517251;1098;65552;-62
2020/12/05 08:32:18;;;;;;;12.20;10.33;;;;;;;8.22;68.68;98588.73;516493;1098;65162;-62
2020/12/05 08:42:22;;;;;;;15.30;11.10;;;;;;;8.21;68.38;98589.67;516758;1098;65759;-66
2020/12/05 08:52:27;;;;;;;13.30;10.55;;;;;;;8.83;67.64;98602.80;517052;1098;65179;-66
2020/12/05 09:02:37;;;;;;;12.70;10.37;;;;;;;8.95;66.81;98616.77;517642;1098;65499;-66
2020/12/05 09:12:41;;;;;;;15.23;10.93;;;;;;;8.57;67.57;98646.55;516578;1098;65226;-70
2020/12/05 09:22:49;;;;;;;16.43;10.80;;;;;;;8.45;68.07;98642.97;521184;1092;65133;-63
2020/12/05 09:32:53;;;;;;;;;;;;;;;8.54;67.87;98658.91;533680;1090;63525;-61
2020/12/05 09:42:58;;;;;;;15.90;11.00;;;;;;;8.62;67.97;98662.73;519117;1098;65284;-83
2020/12/05 09:53:02;;;;;;;16.63;10.73;;;;;;;8.65;68.11;98655.52;510828;1098;10000864;-70
2020/12/05 10:03:06;;;;;;;15.93;12.53;;;;;;;8.71;67.64;98656.00;519635;1098;65175;-72
2020/12/05 10:13:10;;;;;;;15.37;10.77;;;;;;;8.81;67.37;98657.88;519813;1090;65637;-76
2020/12/05 10:23:14;;;;;;;15.40;10.07;;;;;;;8.94;67.97;98646.52;520148;1098;65262;-76
2020/12/05 10:33:17;;;;;;;14.17;10.77;;;;;;;9.06;67.40;98655.24;519969;1090;65646;-59
2020/12/05 10:43:21;;;;;;;13.03;10.50;;;;;;;9.22;67.65;98657.58;516181;1098;65522;-61
2020/12/05 10:53:26;;;;;;;16.37;12.10;;;;;;;9.38;67.78;98673.01;516369;1098;65438;-60
2020/12/05 11:03:30;;;;;;;13.97;12.13;;;;;;;9.45;67.58;98683.87;516242;1093;65275;-61
2020/12/05 11:13:34;;;;;;;15.47;11.33;;;;;;;9.36;67.50;98680.16;515644;1098;65143;-60
2020/12/05 11:23:38;;;;;;;14.75;10.80;;;;;;;9.38;67.36;98679.09;531696;1098;65118;-60
2020/12/05 11:33:42;;;;;;;13.80;11.40;;;;;;;9.39;67.12;98672.91;517076;1093;65737;-61
2020/12/05 11:43:46;;;;;;;15.70;11.03;;;;;;;9.39;67.54;98682.53;517029;1098;65207;-61
2020/12/05 11:53:50;;;;;;;15.23;11.10;;;;;;;9.52;67.90;98700.81;517161;1093;65194;-61
2020/12/05 12:03:54;;;;;;;14.87;11.57;;;;;;;9.57;67.25;98705.72;517299;1098;65175;-61
2020/12/05 12:13:58;;;;;;;12.67;10.43;;;;;;;9.68;67.42;98703.14;517437;1098;65229;-60
2020/12/05 12:24:01;;;;;;;15.30;10.67;;;;;;;9.91;66.87;98706.64;517309;1098;65292;-61
2020/12/05 12:34:07;;;;;;;15.93;11.60;;;;;;;9.99;67.01;98748.05;517514;1098;65236;-60
2020/12/05 12:44:10;;;;;;;12.20;9.00;;;;;;;9.97;66.93;98747.30;517685;1098;65614;-60
2020/12/05 12:54:15;;;;;;;13.70;10.73;;;;;;;9.87;66.73;98755.03;517338;1098;65252;-61
2020/12/05 13:04:19;;;;;;;11.00;8.80;;;;;;;9.79;66.93;98775.73;517431;1093;65150;-60
2020/12/05 13:14:23;;;;;;;15.17;11.10;;;;;;;9.75;66.81;98772.49;517198;1094;65152;-62
2020/12/05 13:24:27;;;;;;;13.77;10.73;;;;;;;9.60;67.58;98791.98;517060;1098;65176;-61
2020/12/05 13:34:32;;;;;;;15.10;11.03;;;;;;;9.46;67.55;98799.06;508040;1093;10003169;-62
2020/12/05 13:44:35;;;;;;;16.53;11.33;;;;;;;9.41;67.66;98801.19;516798;1098;65220;-61
2020/12/05 13:54:40;;;;;;;14.50;11.47;;;;;;;9.30;68.15;98822.08;516557;1098;65179;-53
2020/12/05 14:04:44;;;;;;;19.13;13.17;;;;;;;9.17;67.80;98822.92;516753;1093;65255;-57
2020/12/05 14:14:49;;;;;;;16.27;11.87;;;;;;;9.14;67.99;98840.66;516537;1098;65312;-59
2020/12/05 14:24:52;;;;;;;20.50;13.40;;;;;;;9.04;68.56;98838.68;516062;1092;65220;-58
2020/12/05 14:34:56;;;;;;;18.10;12.13;;;;;;;8.96;68.66;98841.84;524950;1098;65150;-60
2020/12/05 14:45:03;;;;;;;16.83;11.83;;;;;;;9.00;68.96;98849.47;516008;1098;65229;-59
2020/12/05 14:55:07;;;;;;;16.03;11.93;;;;;;;8.95;69.08;98865.50;515932;1098;65548;-59
2020/12/05 15:05:10;;;;;;;20.70;12.10;;;;;;;9.00;68.94;98850.30;515938;1093;65173;-59
2020/12/05 15:15:15;;;;;;;17.77;12.63;;;;;;;9.03;68.86;98859.73;515792;1098;65153;-59
2020/12/05 15:25:19;;;;;;;15.80;11.90;;;;;;;8.99;68.62;98864.33;522433;1098;65573;-60
2020/12/05 15:35:23;;;;;;;17.33;12.23;;;;;;;9.01;69.18;98864.23;516214;1098;65578;-61
2020/12/05 15:45:27;;;;;;;16.33;12.30;;;;;;;8.95;69.41;98874.20;516445;1098;65258;-59
2020/12/05 15:55:31;;;;;;;17.77;13.27;;;;;;;8.86;69.23;98877.45;516426;1098;65618;-60
2020/12/05 16:05:36;;;;;;;18.43;13.27;;;;;;;8.85;69.91;98870.55;516508;1098;66310;-70
2020/12/05 16:15:40;;;;;;;20.23;14.30;;;;;;;8.68;69.88;98885.59;520045;1098;65610;-65
2020/12/05 16:25:44;;;;;;;19.10;13.47;;;;;;;8.58;70.18;98879.31;516537;1093;65228;-67
2020/12/05 16:35:48;;;;;;;18.98;12.70;;;;;;;8.57;69.95;98889.89;507776;1098;10003000;-60
2020/12/05 16:45:52;;;;;;;16.93;12.00;;;;;;;8.50;69.93;98886.82;516195;1093;65147;-65
2020/12/05 16:55:59;;;;;;;18.63;14.37;;;;;;;8.50;70.69;98885.06;516100;1098;65255;-65
2020/12/05 17:06:03;;;;;;;17.90;13.23;;;;;;;8.37;70.16;98895.48;515975;1093;65168;-58
2020/12/05 17:16:07;;;;;;;16.10;11.43;;;;;;;8.38;70.43;98909.39;516224;1098;65533;-60
2020/12/05 17:26:11;;;;;;;17.50;13.17;;;;;;;8.34;70.38;98907.92;515915;1098;65259;-60
2020/12/05 17:36:15;;;;;;;16.70;11.57;;;;;;;8.20;70.75;98893.13;516048;1093;65147;-66
2020/12/05 17:46:19;;;;;;;15.50;13.10;;;;;;;8.16;70.85;98900.33;516231;1098;65297;-65
2020/12/05 17:56:23;;;;;;;15.43;11.30;;;;;;;8.05;70.97;98908.89;516154;1098;65653;-66
2020/12/05 18:06:27;;;;;;;17.43;11.27;;;;;;;7.91;70.96;98925.45;516094;1093;65175;-62
2020/12/05 18:16:32;;;;;;;16.70;12.53;;;;;;;7.97;71.67;98939.91;515945;1098;65951;-65
2020/12/05 18:26:36;;;;;;;16.73;12.40;;;;;;;8.02;71.23;98942.23;516071;1093;65216;-61
2020/12/05 18:36:40;;;;;;;17.13;11.60;;;;;;;7.98;71.51;98950.28;516248;1093;65226;-66
2020/12/05 18:46:47;;;;;;;20.87;12.93;;;;;;;8.10;71.66;98953.05;517508;1098;65770;-63
2020/12/05 18:56:51;;;;;;;16.83;13.03;;;;;;;8.10;71.60;98977.41;516533;1098;65147;-65
2020/12/05 19:06:57;;;;;;;15.77;11.10;;;;;;;8.04;71.68;98975.20;516640;1098;65147;-69
2020/12/05 19:17:01;;;;;;;17.10;12.47;;;;;;;8.06;71.41;98983.77;516910;1098;65453;-66
2020/12/05 19:27:05;;;;;;;18.00;12.10;;;;;;;7.95;71.13;99002.73;517337;1098;65149;-68
2020/12/05 19:37:09;;;;;;;21.23;12.40;;;;;;;7.85;71.96;98994.64;516574;1093;65249;-65
2020/12/05 19:47:13;;;;;;;22.00;13.67;;;;;;;7.73;72.02;99000.63;516757;1098;65360;-63
2020/12/05 19:57:17;;;;;;;19.67;14.07;;;;;;;7.54;71.93;99011.38;516580;1098;65212;-66
2020/12/05 20:07:25;;;;;;;17.83;10.60;;;;;;;7.50;72.25;99007.25;516477;1093;65179;-62
2020/12/05 20:17:30;;;;;;;18.95;13.15;;;;;;;7.49;72.62;99002.97;516555;1093;65229;-63
2020/12/05 20:27:34;;;;;;;20.25;13.10;;;;;;;7.37;73.04;98996.73;516308;1098;65566;-60
2020/12/05 20:37:38;;;;;;;19.60;12.27;;;;;;;7.40;72.95;99002.61;517063;1098;65216;-62
2020/12/05 20:47:46;;;;;;;20.35;13.50;;;;;;;7.37;72.77;99005.38;519302;1098;65700;-61
2020/12/05 20:57:50;;;;;;;18.20;12.37;;;;;;;7.29;73.17;99011.07;516609;1098;65173;-60
2020/12/05 21:07:54;;;;;;;15.95;12.70;;;;;;;7.24;73.06;99014.89;516371;1098;65205;-61
2020/12/05 21:17:58;;;;;;;20.77;14.23;;;;;;;7.09;73.29;99025.32;516090;1098;65230;-60
2020/12/05 21:28:02;;;;;;;21.40;12.95;;;;;;;6.96;73.55;99040.02;516682;1098;65176;-63
2020/12/05 21:38:08;;;;;;;20.57;14.87;;;;;;;6.89;73.68;99034.31;516446;1098;65583;-61
2020/12/05 21:48:12;;;;;;;24.57;18.70;;;;;;;6.70;74.15;99048.41;516433;1098;65361;-62
2020/12/05 21:58:16;;;;;;;25.90;17.20;;;;;;;6.54;74.37;99064.08;516556;1093;65277;-60
2020/12/05 22:08:20;;;;;;;29.87;18.83;;;;;;;6.47;74.83;99056.69;516974;1093;65130;-61
2020/12/05 22:18:24;;;;;;;27.13;17.10;;;;;;;6.34;74.22;99044.33;516790;1090;65409;-59
2020/12/05 22:28:28;;;;;;;25.37;17.00;;;;;;;6.22;75.35;99047.62;517235;1098;65639;-59
2020/12/05 22:38:32;;;;;;;30.30;18.37;;;;;;;6.10;75.39;99039.55;516821;1098;65255;-60
2020/12/05 22:48:39;;;;;;;25.30;17.13;;;;;;;5.93;75.76;99040.42;516706;1091;65221;-60
2020/12/05 22:58:43;;;;;;;23.40;15.80;;;;;;;5.83;76.38;99037.48;516645;1093;66485;-58
2020/12/05 23:08:47;;;;;;;29.20;18.27;;;;;;;5.81;76.19;99054.93;516624;1098;65176;-60
2020/12/05 23:18:51;;;;;;;28.23;18.00;;;;;;;5.66;76.35;99048.79;516189;1093;65189;-60
2020/12/05 23:28:55;;;;;;;25.50;16.97;;;;;;;5.54;76.72;99052.86;516877;1098;65232;-61
2020/12/05 23:38:59;;;;;;;27.13;19.43;;;;;;;5.50;76.96;99043.54;516836;1098;65147;-61
2020/12/05 23:49:03;;;;;;;24.83;17.27;;;;;;;5.44;77.80;99056.86;517129;1098;65146;-59
2020/12/05 23:59:08;;;;;;;28.40;18.15;;;;;;;5.36;77.84;99041.64;516983;1092;65620;-61
